METAR v bližini

 

LJLJ - Ljubljana/Brnik, Slovenia
Oddaljenost od postaje: W 41km
Podatki zajeti: 04/10/2022 14:30
Delno oblačno
Delno oblačno
 Veter iz smeri E
Veter: E 9 km/h
Temperatura: 17°C
Rosišče: 7°C
Vlažnost: 52%
Tlak: 1023 hPa
Oblačnost: Delno oblačno
Vidljivost: 10 km
Podrobnosti o oblakih: Rahlo oblačno 1158 m
Delno oblačno 6401 m
2022/10/04 12:30 LJLJ 041230Z 08005KT 040V100 9999 FEW038 SCT210 17/07 Q1023 NOSIG
LJMB - Maribor, Slovenia
Oddaljenost od postaje: NE 63km
Podatki zajeti: 04/10/2022 14:30
Jasno
Jasno
 Veter iz smeri S
Veter: S 7 km/h
Temperatura: 19°C
Rosišče: 6°C
Vlažnost: 43%
Tlak: 1023 hPa
Stanje: Jasno
Vidljivost: večja od 10 km
2022/10/04 12:30 LJMB 041230Z 17004KT 070V210 CAVOK 19/06 Q1023
 
LJPZ - Portoroz, Slovenia
Oddaljenost od postaje: SW 130km
Podatki zajeti: 04/10/2022 14:30
Pretežno oblačno
Pretežno oblačno
 Veter iz smeri SSW
Veter: SSW 13 km/h
Temperatura: 22°C
Rosišče: 13°C
Vlažnost: 57%
Tlak: 1022 hPa
Oblačnost: Pretežno oblačno
Vidljivost: 10 km
Podrobnosti o oblakih: Delno oblačno 1219 m
Pretežno oblačno 1524 m
2022/10/04 12:30 LJPZ 041230Z 20007KT 160V230 9999 SCT040 BKN050 22/13 Q1022
LJCE - Cerklje, Slovenia
Oddaljenost od postaje: ESE 49km
Podatki zajeti: 04/10/2022 14:30
Delno oblačno
Delno oblačno
 Veter iz smeri spremenljiv
Veter: spremenljiv 4 km/h
Temperatura: 19°C
Rosišče: 7°C
Vlažnost: 46%
Tlak: 1023 hPa
Oblačnost: Delno oblačno
Vidljivost: 10 km
Podrobnosti o oblakih: Rahlo oblačno 1341 m
Delno oblačno 1646 m
2022/10/04 12:30 LJCE 041230Z VRB02KT 9999 FEW044 SCT054 19/07 Q1023 RMK BLU
 
LDZA - Zagreb/Pleso, Croatia
Oddaljenost od postaje: ESE 96km
Podatki zajeti: 04/10/2022 14:30
Jasno
Jasno
 Veter iz smeri spremenljiv
Veter: spremenljiv 6 km/h
Temperatura: 21°C
Rosišče: 7°C
Vlažnost: 40%
Tlak: 1023 hPa
Stanje: Jasno
Vidljivost: večja od 10 km
2022/10/04 12:30 LDZA 041230Z VRB03KT CAVOK 21/07 Q1023 NOSIG
LDRI - Rijeka/Omisalj, Croatia
Oddaljenost od postaje: SSW 109km
Podatki zajeti: 04/10/2022 14:30
Rahlo oblačno
Rahlo oblačno
 Veter iz smeri W
Veter: W 9 km/h
Temperatura: 21°C
Rosišče: 9°C
Vlažnost: 46%
Tlak: 1022 hPa
Oblačnost: Rahlo oblačno
Vidljivost: 10 km
Podrobnosti o oblakih: Rahlo oblačno 1097 m
2022/10/04 12:30 LDRI 041230Z 27005KT 200V330 9999 FEW036 21/09 Q1022
 
LDPL - Pula, Croatia
Oddaljenost od postaje: SSW 164km
Podatki zajeti: 04/10/2022 14:30
Rahlo oblačno
Rahlo oblačno
 Veter iz smeri S
Veter: S 9 km/h
Temperatura: 20°C
Rosišče: 11°C
Vlažnost: 56%
Tlak: 1023 hPa
Oblačnost: Rahlo oblačno
Vidljivost: 10 km
Podrobnosti o oblakih: Rahlo oblačno 1067 m
2022/10/04 12:30 LDPL 041230Z 18005KT 130V260 9999 FEW035 20/11 Q1023 NOSIG
LOWK - Klagenfurt(Civ/M, Austria
Oddaljenost od postaje: NW 76km
Podatki zajeti: 04/10/2022 14:50
Rahlo oblačno
Rahlo oblačno
 Veter iz smeri E
Veter: E 7 km/h
Temperatura: 17°C
Rosišče: 7°C
Vlažnost: 52%
Tlak: 1023 hPa
Oblačnost: Rahlo oblačno
Vidljivost: 10 km
Podrobnosti o oblakih: Rahlo oblačno 1829 m
2022/10/04 12:50 LOWK 041250Z 09004KT 050V130 9999 FEW060 17/07 Q1023 NOSIG
 
LOWG - Graz (mil/Civ), Austria
Oddaljenost od postaje: NNE 100km
Podatki zajeti: 04/10/2022 14:50
Rahlo oblačno
Rahlo oblačno
 Veter iz smeri spremenljiv
Veter: spremenljiv 6 km/h
Temperatura: 18°C
Rosišče: 5°C
Vlažnost: 43%
Tlak: 1023 hPa
Oblačnost: Rahlo oblačno
Vidljivost: 10 km
Podrobnosti o oblakih: Rahlo oblačno 1829 m
2022/10/04 12:50 LOWG 041250Z VRB03KT 9999 FEW060 18/05 Q1023 NOSIG
LOAN - Wr.neustadt East, Austria
Oddaljenost od postaje: NNE 212km
Podatki zajeti: 04/10/2022 14:00
Pretežno oblačno
Pretežno oblačno
 Veter iz smeri NNW
Veter: NNW 19 km/h
Oblačnost: Pretežno oblačno
Vidljivost: 10 km
Podrobnosti o oblakih: Rahlo oblačno 1067 m
Pretežno oblačno 1829 m
2022/10/04 12:00 LOAN 041200Z 33010KT 9999 FEW035 BKN060
 
LIPQ - Ronchi Legionari, Italy
Oddaljenost od postaje: SW 35km
Podatki zajeti: 04/10/2022 14:50
Oblačno
Oblačno
 Veter iz smeri S
Veter: S 6 km/h
Temperatura: 20°C
Rosišče: 14°C
Vlažnost: 69%
Tlak: 1022 hPa
Oblačnost: Oblačno
Vidljivost: 10 km
Podrobnosti o oblakih: Oblačno 914 m
2022/10/04 12:50 LIPQ 041250Z AUTO 18003KT 140V230 9999 OVC030/// 20/14 Q1022
LIVT - Trieste, Italy
Oddaljenost od postaje: WSW 109km
Podatki zajeti: 04/10/2022 13:55
Delno oblačno
Delno oblačno
 Veter iz smeri spremenljiv
Veter: spremenljiv 2 km/h
Temperatura: 21°C
Rosišče: 12°C
Vlažnost: 57%
Tlak: 1022 hPa
Oblačnost: Delno oblačno
Vidljivost: 10 km
Podrobnosti o oblakih: Delno oblačno 1219 m
2022/10/04 11:55 LIVT 041155Z VRB01KT 9999 SCT040 21/12 Q1022
 
LIVO - Tarvisio, Italy
Oddaljenost od postaje: NNW 49km
Podatki zajeti: 04/10/2022 13:55
Jasno
Jasno
 Veter iz smeri calm
Veter: Calm
Temperatura: 12°C
Rosišče: 6°C
Vlažnost: 67%
Tlak: 1022 hPa
Stanje: Jasno
Vidljivost: večja od 10 km
2022/10/04 11:55 LIVO 041155Z 00000KT CAVOK 12/06 Q1022
LIPZ - Venezia/Tessera, Italy
Oddaljenost od postaje: WSW 217km
Podatki zajeti: 04/10/2022 14:50
Rahlo oblačno
Rahlo oblačno
 Veter iz smeri SE
Veter: SE 11 km/h
Temperatura: 20°C
Rosišče: 15°C
Vlažnost: 73%
Tlak: 1022 hPa
Oblačnost: Rahlo oblačno
Vidljivost: 10 km
Podrobnosti o oblakih: Rahlo oblačno 1219 m
2022/10/04 12:50 LIPZ 041250Z 13006KT 080V150 9999 FEW040 20/15 Q1022 NOSIG
 
LHSM - Balaton, Hungary
Oddaljenost od postaje: ENE 177km
Podatki zajeti: 04/10/2022 14:15
Jasno
Jasno
 Veter iz smeri NNW
Veter: NNW 17 km/h
Temperatura: 17°C
Rosišče: 8°C
Vlažnost: 56%
Tlak: 1023 hPa
Stanje: Jasno
Vidljivost: večja od 10 km
2022/10/04 12:15 LHSM 041215Z AUTO 34009KT 310V010 CAVOK 17/08 Q1023 NOSIG